createdAt,value
2019-03-23T00:00:08.852Z,9.15
2019-03-23T00:02:38.480Z,9.14
2019-03-23T00:05:09.141Z,9.12
2019-03-23T00:07:38.774Z,9.12
2019-03-23T00:10:08.683Z,9.10
2019-03-23T00:12:38.306Z,9.09
2019-03-23T00:15:10.479Z,9.07
2019-03-23T00:17:40.092Z,9.04
2019-03-23T00:20:09.795Z,8.96
2019-03-23T00:22:39.334Z,8.89
2019-03-23T00:25:08.955Z,8.86
2019-03-23T00:27:38.579Z,8.82
2019-03-23T00:30:09.244Z,8.77
2019-03-23T00:32:38.861Z,8.74
2019-03-23T00:35:08.972Z,8.66
2019-03-23T00:37:38.592Z,8.61
2019-03-23T00:40:08.574Z,8.57
2019-03-23T00:42:38.172Z,8.56
2019-03-23T00:45:08.670Z,8.54
2019-03-23T00:47:38.191Z,8.52
2019-03-23T00:50:08.612Z,8.51
2019-03-23T00:52:38.214Z,8.49
2019-03-23T00:55:08.465Z,8.48
2019-03-23T00:57:38.085Z,8.45
2019-03-23T01:00:09.233Z,8.42
2019-03-23T01:02:38.842Z,8.40
2019-03-23T01:05:08.949Z,8.37
2019-03-23T01:07:38.555Z,8.35
2019-03-23T01:10:09.248Z,8.37
2019-03-23T01:12:38.844Z,8.40
2019-03-23T01:15:08.558Z,8.40
2019-03-23T01:17:38.084Z,8.42
2019-03-23T01:20:09.331Z,8.42
2019-03-23T01:22:38.941Z,8.44
2019-03-23T01:25:09.959Z,8.44
2019-03-23T01:27:39.564Z,8.45
2019-03-23T01:30:10.503Z,8.42
2019-03-23T01:32:40.113Z,8.39
2019-03-23T01:35:09.739Z,8.34
2019-03-23T01:37:39.188Z,8.32
2019-03-23T01:40:09.088Z,8.30
2019-03-23T01:42:38.683Z,8.30
2019-03-23T01:45:08.933Z,8.24
2019-03-23T01:47:38.527Z,8.16
2019-03-23T01:50:08.299Z,8.11
2019-03-23T01:52:37.925Z,8.11
2019-03-23T01:55:08.264Z,8.08
2019-03-23T01:57:37.789Z,8.09
2019-03-23T02:00:08.011Z,8.06
2019-03-23T02:02:37.832Z,8.00
2019-03-23T02:05:08.276Z,7.95
2019-03-23T02:07:37.867Z,7.91
2019-03-23T02:10:07.955Z,7.88
2019-03-23T02:12:37.564Z,7.88
2019-03-23T02:15:07.494Z,7.89
2019-03-23T02:17:37.095Z,7.85
2019-03-23T02:20:08.274Z,7.79
2019-03-23T02:22:37.910Z,7.74
2019-03-23T02:25:07.921Z,7.71
2019-03-23T02:27:37.516Z,7.66
2019-03-23T02:30:08.545Z,7.61
2019-03-23T02:32:38.072Z,7.59
2019-03-23T02:35:08.412Z,7.51
2019-03-23T02:37:37.953Z,7.46
2019-03-23T02:40:08.129Z,7.41
2019-03-23T02:42:37.751Z,7.34
2019-03-23T02:45:08.223Z,7.28
2019-03-23T02:47:37.828Z,7.22
2019-03-23T02:50:08.201Z,7.20
2019-03-23T02:52:37.988Z,7.21
2019-03-23T02:55:08.761Z,7.24
2019-03-23T02:57:38.379Z,7.26
2019-03-23T03:00:08.626Z,7.26
2019-03-23T03:02:38.265Z,7.26
2019-03-23T03:05:09.559Z,7.28
2019-03-23T03:07:42.327Z,7.28
2019-03-23T03:10:11.130Z,7.28
2019-03-23T03:12:40.716Z,7.28
2019-03-23T03:15:10.371Z,7.26
2019-03-23T03:17:39.890Z,7.22
2019-03-23T03:20:10.398Z,7.16
2019-03-23T03:22:39.940Z,7.16
2019-03-23T03:25:10.075Z,7.14
2019-03-23T03:27:39.591Z,7.10
2019-03-23T03:30:10.230Z,7.10
2019-03-23T03:32:39.819Z,7.08
2019-03-23T03:35:09.959Z,7.02
2019-03-23T03:37:39.541Z,7.00
2019-03-23T03:40:09.184Z,6.96
2019-03-23T03:42:38.757Z,6.95
2019-03-23T03:45:09.287Z,6.93
2019-03-23T03:47:41.264Z,6.91
2019-03-23T03:50:10.376Z,6.89
2019-03-23T03:52:39.891Z,6.88
2019-03-23T03:55:09.519Z,6.86
2019-03-23T03:57:39.139Z,6.84
2019-03-23T04:00:09.220Z,6.82
2019-03-23T04:02:38.825Z,6.76
2019-03-23T04:05:08.428Z,6.75
2019-03-23T04:07:38.038Z,6.70
2019-03-23T04:10:08.408Z,6.65
2019-03-23T04:12:37.880Z,6.60
2019-03-23T04:15:07.617Z,6.55
2019-03-23T04:17:37.230Z,6.51
2019-03-23T04:20:07.392Z,6.47
2019-03-23T04:22:37.414Z,6.42
2019-03-23T04:25:07.350Z,6.37
2019-03-23T04:27:36.973Z,6.33
2019-03-23T04:30:06.799Z,6.27
2019-03-23T04:32:36.458Z,6.24
2019-03-23T04:35:07.252Z,6.17
2019-03-23T04:37:36.873Z,6.15
2019-03-23T04:40:07.370Z,6.13
2019-03-23T04:42:36.913Z,6.08
2019-03-23T04:45:08.694Z,6.05
2019-03-23T04:47:38.242Z,6.03
2019-03-23T04:50:08.616Z,6.01
2019-03-23T04:52:38.232Z,5.99
2019-03-23T04:55:10.025Z,5.96
2019-03-23T04:57:40.556Z,5.94
2019-03-23T05:00:12.081Z,5.89
2019-03-23T05:02:41.675Z,5.83
2019-03-23T05:05:11.275Z,5.78
2019-03-23T05:07:40.879Z,5.72
2019-03-23T05:10:11.551Z,5.66
2019-03-23T05:12:41.166Z,5.58
2019-03-23T05:15:10.983Z,5.53
2019-03-23T05:17:40.603Z,5.48
2019-03-23T05:20:10.505Z,5.45
2019-03-23T05:22:40.037Z,5.42
2019-03-23T05:25:16.266Z,5.38
2019-03-23T05:27:45.739Z,5.36
2019-03-23T05:30:15.334Z,5.33
2019-03-23T05:32:44.954Z,5.32
2019-03-23T05:35:14.538Z,5.30
2019-03-23T05:37:44.072Z,5.29
2019-03-23T05:40:13.666Z,5.28
2019-03-23T05:42:43.284Z,5.27
2019-03-23T05:45:12.868Z,5.24
2019-03-23T05:47:42.478Z,5.23
2019-03-23T05:50:12.069Z,5.20
2019-03-23T05:52:41.679Z,5.20
2019-03-23T05:55:11.499Z,5.19
2019-03-23T05:57:41.170Z,5.18
2019-03-23T06:00:13.966Z,5.19
2019-03-23T06:02:43.588Z,5.19
2019-03-23T06:05:13.174Z,5.20
2019-03-23T06:07:42.785Z,5.19
2019-03-23T06:10:12.503Z,5.21
2019-03-23T06:12:42.119Z,5.23
2019-03-23T06:15:11.723Z,5.25
2019-03-23T06:17:41.254Z,5.28
2019-03-23T06:20:11.184Z,5.31
2019-03-23T06:22:40.804Z,5.36
2019-03-23T06:25:10.401Z,5.40
2019-03-23T06:27:39.940Z,5.42
2019-03-23T06:30:10.035Z,5.45
2019-03-23T06:32:39.648Z,5.50
2019-03-23T06:35:09.594Z,5.54
2019-03-23T06:37:39.219Z,5.58
2019-03-23T06:40:09.949Z,5.62
2019-03-23T06:42:39.666Z,5.69
2019-03-23T06:45:10.021Z,5.76
2019-03-23T06:47:39.653Z,5.84
2019-03-23T06:50:09.879Z,5.89
2019-03-23T06:52:39.515Z,5.96
2019-03-23T06:55:09.448Z,6.02
2019-03-23T06:57:39.086Z,6.09
2019-03-23T07:00:10.697Z,6.14
2019-03-23T07:02:40.310Z,6.22
2019-03-23T07:05:10.400Z,6.33
2019-03-23T07:07:40.036Z,6.44
2019-03-23T07:10:10.320Z,6.54
2019-03-23T07:12:39.950Z,6.67
2019-03-23T07:15:19.399Z,6.79
2019-03-23T07:17:41.523Z,6.91
2019-03-23T07:20:12.165Z,7.02
2019-03-23T07:22:41.791Z,7.14
2019-03-23T07:25:11.952Z,7.26
2019-03-23T07:27:41.590Z,7.39
2019-03-23T07:30:13.221Z,7.54
2019-03-23T07:32:42.926Z,7.68
2019-03-23T07:35:12.844Z,7.77
2019-03-23T07:37:42.469Z,7.83
2019-03-23T07:40:12.282Z,7.88
2019-03-23T07:42:41.915Z,7.93
2019-03-23T07:45:11.841Z,7.97
2019-03-23T07:47:41.467Z,8.03
2019-03-23T07:50:11.483Z,8.10
2019-03-23T07:52:41.102Z,8.19
2019-03-23T07:55:15.044Z,8.28
2019-03-23T07:57:44.718Z,8.36
2019-03-23T08:00:16.867Z,8.50
2019-03-23T08:02:46.476Z,8.64
2019-03-23T08:05:16.099Z,8.77
2019-03-23T08:07:45.724Z,8.92
2019-03-23T08:10:31.988Z,9.07
2019-03-23T08:13:01.705Z,9.22
2019-03-23T08:15:31.389Z,9.35
2019-03-23T08:18:00.991Z,9.48
2019-03-23T08:20:30.612Z,9.59
2019-03-23T08:23:00.225Z,9.70
2019-03-23T08:25:29.850Z,9.81
2019-03-23T08:27:59.375Z,9.93
2019-03-23T08:30:28.985Z,10.08
2019-03-23T08:32:58.468Z,10.23
2019-03-23T08:35:28.172Z,10.40
2019-03-23T08:38:05.609Z,10.57
2019-03-23T08:40:52.300Z,10.71
2019-03-23T08:43:22.046Z,10.87
2019-03-23T08:45:54.466Z,11.03
2019-03-23T08:48:24.098Z,11.14
2019-03-23T08:51:03.096Z,11.32
2019-03-23T08:53:42.294Z,11.47
2019-03-23T08:56:15.730Z,11.66
2019-03-23T08:58:43.197Z,11.81
2019-03-23T09:01:13.016Z,11.96
2019-03-23T09:03:52.004Z,12.11
2019-03-23T09:06:17.233Z,12.26
2019-03-23T09:08:50.954Z,12.40
2019-03-23T09:12:11.524Z,12.52
2019-03-23T09:15:08.406Z,12.65
2019-03-23T09:17:52.165Z,12.79
2019-03-23T09:20:52.656Z,12.91
2019-03-23T09:24:03.593Z,13.05
2019-03-23T09:27:08.132Z,13.18
2019-03-23T09:29:51.549Z,13.27
2019-03-23T09:32:27.895Z,13.39
2019-03-23T09:35:05.553Z,13.48
2019-03-23T09:37:52.328Z,13.59
2019-03-23T09:40:25.388Z,13.70
2019-03-23T09:43:11.002Z,13.86
2019-03-23T09:45:36.374Z,13.97
2019-03-23T09:48:05.977Z,14.07
2019-03-23T09:50:35.600Z,14.16
2019-03-23T09:53:05.228Z,14.26
2019-03-23T09:55:34.769Z,14.39
2019-03-23T09:58:04.398Z,14.50
2019-03-23T10:00:33.949Z,14.62
2019-03-23T10:03:03.565Z,14.73
2019-03-23T10:05:33.193Z,14.88
2019-03-23T10:08:02.797Z,15.03
2019-03-23T10:10:32.346Z,15.18
2019-03-23T10:13:01.953Z,15.34
2019-03-23T10:15:31.594Z,15.49
2019-03-23T10:18:01.723Z,15.62
2019-03-23T10:20:31.532Z,15.73
2019-03-23T10:23:01.135Z,15.89
2019-03-23T10:25:30.677Z,16.04
2019-03-23T10:28:00.276Z,16.16
2019-03-23T10:30:29.902Z,16.26
2019-03-23T10:32:59.511Z,16.31
2019-03-23T10:35:29.132Z,16.36
2019-03-23T10:37:58.683Z,16.49
2019-03-23T10:40:32.698Z,16.60
2019-03-23T10:42:59.635Z,16.79
2019-03-23T10:45:29.261Z,16.85
2019-03-23T10:47:58.720Z,16.92
2019-03-23T10:50:28.383Z,16.96
2019-03-23T10:52:58.000Z,16.97
2019-03-23T10:55:27.529Z,16.99
2019-03-23T10:57:57.174Z,17.02
2019-03-23T11:00:26.705Z,16.95
2019-03-23T11:02:56.256Z,16.94
2019-03-23T11:05:25.867Z,16.96
2019-03-23T11:07:55.412Z,16.95
2019-03-23T11:10:25.019Z,16.95
2019-03-23T11:12:54.668Z,17.04
2019-03-23T11:15:24.275Z,17.06
2019-03-23T11:17:53.832Z,17.04
2019-03-23T11:20:23.441Z,16.95
2019-03-23T11:22:53.069Z,16.89
2019-03-23T11:25:22.692Z,16.81
2019-03-23T11:27:52.233Z,16.82
2019-03-23T11:30:21.840Z,16.80
2019-03-23T11:32:51.466Z,16.80
2019-03-23T11:35:21.243Z,16.91
2019-03-23T11:37:51.130Z,16.91
2019-03-23T11:40:20.859Z,16.84
2019-03-23T11:42:50.617Z,16.89
2019-03-23T11:45:20.229Z,16.85
2019-03-23T11:47:49.877Z,16.82
2019-03-23T11:50:19.541Z,16.88
2019-03-23T11:52:49.080Z,16.85
2019-03-23T11:55:18.695Z,16.76
2019-03-23T11:57:48.266Z,16.68
2019-03-23T12:00:17.965Z,16.58
2019-03-23T12:02:47.594Z,16.57
2019-03-23T12:05:17.205Z,16.54
2019-03-23T12:07:46.832Z,16.49
2019-03-23T12:10:16.445Z,16.43
2019-03-23T12:12:46.184Z,16.55
2019-03-23T12:15:15.994Z,16.57
2019-03-23T12:17:45.548Z,16.57
2019-03-23T12:20:15.249Z,16.48
2019-03-23T12:22:44.882Z,16.36
2019-03-23T12:25:15.009Z,16.32
2019-03-23T12:27:44.653Z,16.35
2019-03-23T12:30:15.958Z,16.35
2019-03-23T12:32:45.733Z,16.35
2019-03-23T12:35:15.350Z,16.40
2019-03-23T12:37:44.970Z,16.42
2019-03-23T12:40:15.796Z,16.45
2019-03-23T12:42:45.449Z,16.45
2019-03-23T12:45:15.141Z,16.50
2019-03-23T12:47:44.741Z,16.55
2019-03-23T12:50:15.166Z,16.49
2019-03-23T12:52:44.770Z,16.40
2019-03-23T12:55:14.388Z,16.43
2019-03-23T12:57:44.017Z,16.42
2019-03-23T13:00:14.242Z,16.44
2019-03-23T13:02:44.045Z,16.50
2019-03-23T13:05:13.975Z,16.47
2019-03-23T13:07:43.506Z,16.47
2019-03-23T13:10:13.485Z,16.40
2019-03-23T13:12:43.084Z,16.28
2019-03-23T13:15:13.125Z,16.26
2019-03-23T13:17:42.744Z,16.16
2019-03-23T13:20:12.502Z,16.00
2019-03-23T13:22:42.169Z,15.92
2019-03-23T13:25:11.898Z,15.91
2019-03-23T13:27:42.304Z,15.93
2019-03-23T13:30:12.417Z,15.99
2019-03-23T13:32:42.018Z,16.03
2019-03-23T13:35:11.750Z,15.99
2019-03-23T13:37:41.302Z,15.91
2019-03-23T13:40:11.293Z,15.94
2019-03-23T13:42:40.892Z,15.99
2019-03-23T13:45:10.928Z,15.97
2019-03-23T13:47:40.557Z,15.87
2019-03-23T13:50:10.929Z,15.75
2019-03-23T13:52:40.533Z,15.75
2019-03-23T13:55:14.985Z,15.82
2019-03-23T13:57:44.607Z,15.88
2019-03-23T14:00:14.363Z,16.03
2019-03-23T14:02:43.966Z,16.05
2019-03-23T14:05:16.336Z,16.14
2019-03-23T14:07:44.913Z,16.17
2019-03-23T14:10:14.542Z,16.07
2019-03-23T14:12:44.082Z,16.04
2019-03-23T14:15:13.698Z,16.05
2019-03-23T14:17:43.304Z,16.16
2019-03-23T14:20:12.925Z,16.18
2019-03-23T14:22:42.449Z,16.17
2019-03-23T14:25:12.068Z,16.26
2019-03-23T14:27:41.598Z,16.43
2019-03-23T14:30:11.454Z,16.57
2019-03-23T14:32:41.022Z,16.67
2019-03-23T14:35:10.598Z,16.80
2019-03-23T14:37:40.197Z,16.86
2019-03-23T14:40:09.954Z,16.90
2019-03-23T14:42:39.551Z,17.00
2019-03-23T14:45:09.292Z,17.13
2019-03-23T14:47:38.888Z,17.18
2019-03-23T14:50:08.904Z,17.19
2019-03-23T14:52:38.498Z,17.18
2019-03-23T14:55:08.863Z,17.19
2019-03-23T14:57:40.466Z,17.18
2019-03-23T15:00:10.633Z,17.24
2019-03-23T15:02:40.193Z,17.14
2019-03-23T15:05:09.996Z,17.09
2019-03-23T15:07:39.618Z,16.98
2019-03-23T15:10:09.827Z,16.94
2019-03-23T15:12:39.450Z,16.95
2019-03-23T15:15:09.072Z,16.94
2019-03-23T15:17:48.246Z,16.93
2019-03-23T15:20:10.038Z,16.79
2019-03-23T15:22:39.697Z,16.61
2019-03-23T15:25:09.369Z,16.47
2019-03-23T15:27:38.921Z,16.37
2019-03-23T15:30:08.763Z,16.25
2019-03-23T15:32:38.426Z,16.11
2019-03-23T15:35:08.285Z,16.03
2019-03-23T15:37:37.834Z,15.87
2019-03-23T15:40:08.142Z,15.65
2019-03-23T15:42:37.860Z,15.49
2019-03-23T15:45:08.288Z,15.44
2019-03-23T15:47:37.918Z,15.39
2019-03-23T15:50:08.633Z,15.38
2019-03-23T15:52:38.186Z,15.29
2019-03-23T15:55:08.023Z,15.24
2019-03-23T15:57:37.884Z,15.12
2019-03-23T16:00:09.798Z,15.04
2019-03-23T16:02:39.347Z,14.94
2019-03-23T16:05:09.049Z,14.87
2019-03-23T16:07:38.673Z,14.87
2019-03-23T16:10:09.080Z,14.86
2019-03-23T16:12:38.817Z,14.85
2019-03-23T16:15:10.678Z,14.81
2019-03-23T16:17:40.302Z,14.74
2019-03-23T16:20:10.941Z,14.61
2019-03-23T16:22:40.564Z,14.50
2019-03-23T16:25:11.074Z,14.41
2019-03-23T16:27:40.701Z,14.31
2019-03-23T16:30:12.167Z,14.22
2019-03-23T16:32:41.809Z,14.17
2019-03-23T16:35:11.640Z,14.07
2019-03-23T16:37:41.262Z,13.93
2019-03-23T16:40:11.773Z,13.83
2019-03-23T16:42:45.630Z,13.73
2019-03-23T16:45:12.947Z,13.61
2019-03-23T16:47:42.569Z,13.51
2019-03-23T16:50:12.375Z,13.40
2019-03-23T16:52:42.028Z,13.33
2019-03-23T16:55:12.477Z,13.27
2019-03-23T16:57:42.119Z,13.20
2019-03-23T17:00:12.161Z,13.15
2019-03-23T17:02:41.783Z,13.09
2019-03-23T17:05:11.727Z,13.00
2019-03-23T17:07:41.350Z,12.91
2019-03-23T17:10:10.964Z,12.87
2019-03-23T17:12:40.520Z,12.82
2019-03-23T17:15:10.410Z,12.76
2019-03-23T17:17:40.050Z,12.70
2019-03-23T17:20:10.087Z,12.68
2019-03-23T17:22:39.712Z,12.64
2019-03-23T17:25:09.423Z,12.55
2019-03-23T17:27:38.976Z,12.45
2019-03-23T17:30:09.529Z,12.39
2019-03-23T17:32:39.239Z,12.34
2019-03-23T17:35:08.889Z,12.27
2019-03-23T17:37:38.418Z,12.19
2019-03-23T17:40:08.734Z,12.15
2019-03-23T17:42:38.348Z,12.06
2019-03-23T17:45:08.560Z,11.98
2019-03-23T17:47:38.092Z,11.94
2019-03-23T17:50:09.448Z,11.91
2019-03-23T17:52:39.046Z,11.86
2019-03-23T17:55:08.795Z,11.81
2019-03-23T17:57:38.420Z,11.76
2019-03-23T18:00:09.295Z,11.70
2019-03-23T18:02:38.939Z,11.67
2019-03-23T18:05:08.993Z,11.65
2019-03-23T18:07:38.597Z,11.66
2019-03-23T18:10:08.546Z,11.66
2019-03-23T18:12:38.213Z,11.65
2019-03-23T18:15:09.032Z,11.64
2019-03-23T18:17:38.633Z,11.63
2019-03-23T18:20:08.874Z,11.60
2019-03-23T18:22:38.481Z,11.60
2019-03-23T18:25:08.813Z,11.63
2019-03-23T18:27:38.405Z,11.64
2019-03-23T18:30:17.295Z,11.68
2019-03-23T18:32:46.896Z,11.72
2019-03-23T18:35:16.526Z,11.71
2019-03-23T18:37:46.132Z,11.70
2019-03-23T18:40:16.648Z,11.69
2019-03-23T18:42:46.237Z,11.70
2019-03-23T18:45:15.858Z,11.69
2019-03-23T18:47:45.473Z,11.68
2019-03-23T18:50:15.093Z,11.66
2019-03-23T18:52:44.705Z,11.64
2019-03-23T18:55:14.332Z,11.63
2019-03-23T18:57:43.970Z,11.62
2019-03-23T19:00:17.003Z,11.58
2019-03-23T19:02:46.611Z,11.55
2019-03-23T19:05:16.239Z,11.49
2019-03-23T19:07:45.842Z,11.46
2019-03-23T19:10:15.571Z,11.45
2019-03-23T19:12:45.196Z,11.40
2019-03-23T19:15:14.937Z,11.39
2019-03-23T19:17:44.581Z,11.38
2019-03-23T19:20:14.275Z,11.36
2019-03-23T19:22:43.886Z,11.34
2019-03-23T19:25:18.128Z,11.31
2019-03-23T19:27:44.893Z,11.30
2019-03-23T19:30:14.936Z,11.28
2019-03-23T19:32:44.540Z,11.25
2019-03-23T19:35:14.185Z,11.24
2019-03-23T19:37:43.790Z,11.21
2019-03-23T19:40:13.632Z,11.19
2019-03-23T19:42:43.236Z,11.14
2019-03-23T19:45:12.861Z,11.11
2019-03-23T19:47:42.466Z,11.08
2019-03-23T19:50:12.405Z,11.04
2019-03-23T19:52:42.007Z,11.04
2019-03-23T19:55:11.693Z,11.03
2019-03-23T19:57:41.260Z,11.02
2019-03-23T20:00:11.731Z,11.01
2019-03-23T20:02:41.333Z,11.00
2019-03-23T20:05:10.966Z,11.00
2019-03-23T20:07:40.562Z,10.99
2019-03-23T20:10:10.507Z,11.00
2019-03-23T20:12:40.101Z,11.00
2019-03-23T20:15:10.467Z,11.01
2019-03-23T20:17:40.166Z,11.01
2019-03-23T20:20:10.411Z,11.00
2019-03-23T20:22:40.034Z,10.98
2019-03-23T20:25:09.924Z,10.96
2019-03-23T20:27:39.471Z,10.94
2019-03-23T20:30:10.145Z,10.92
2019-03-23T20:32:39.761Z,10.90
2019-03-23T20:35:10.492Z,10.88
2019-03-23T20:37:40.101Z,10.87
2019-03-23T20:40:10.335Z,10.85
2019-03-23T20:42:39.938Z,10.81
2019-03-23T20:45:11.107Z,10.78
2019-03-23T20:47:41.687Z,10.74
2019-03-23T20:50:11.889Z,10.75
2019-03-23T20:52:41.830Z,10.73
2019-03-23T20:55:24.229Z,10.73
2019-03-23T20:57:54.363Z,10.71
2019-03-23T21:00:23.961Z,10.71
2019-03-23T21:02:53.602Z,10.68
2019-03-23T21:05:33.089Z,10.65
2019-03-23T21:07:54.574Z,10.66
2019-03-23T21:10:24.104Z,10.64
2019-03-23T21:12:53.745Z,10.63
2019-03-23T21:15:23.351Z,10.61
2019-03-23T21:17:52.978Z,10.60
2019-03-23T21:20:22.583Z,10.56
2019-03-23T21:22:52.142Z,10.52
2019-03-23T21:25:21.670Z,10.48
2019-03-23T21:27:51.296Z,10.46
2019-03-23T21:30:21.697Z,10.44
2019-03-23T21:32:51.312Z,10.42
2019-03-23T21:35:20.909Z,10.39
2019-03-23T21:37:50.531Z,10.40
2019-03-23T21:40:20.123Z,10.39
2019-03-23T21:42:49.737Z,10.40
2019-03-23T21:45:19.332Z,10.40
2019-03-23T21:47:48.957Z,10.39
2019-03-23T21:50:18.566Z,10.37
2019-03-23T21:52:48.393Z,10.36
2019-03-23T21:55:17.995Z,10.32
2019-03-23T21:57:47.636Z,10.28
2019-03-23T22:00:30.487Z,10.21
2019-03-23T22:03:00.129Z,10.18
2019-03-23T22:05:29.706Z,10.15
2019-03-23T22:07:59.541Z,10.13
2019-03-23T22:10:29.132Z,10.10
2019-03-23T22:12:58.674Z,10.09
2019-03-23T22:15:31.604Z,10.05
2019-03-23T22:18:01.228Z,10.03
2019-03-23T22:20:30.756Z,10.00
2019-03-23T22:23:00.565Z,9.97
2019-03-23T22:25:30.155Z,9.89
2019-03-23T22:27:59.772Z,9.83
2019-03-23T22:30:29.367Z,9.80
2019-03-23T22:32:58.982Z,9.72
2019-03-23T22:35:28.505Z,9.69
2019-03-23T22:37:58.132Z,9.66
2019-03-23T22:40:28.292Z,9.62
2019-03-23T22:42:58.036Z,9.58
2019-03-23T22:45:27.621Z,9.51
2019-03-23T22:47:57.231Z,9.45
2019-03-23T22:50:26.825Z,9.39
2019-03-23T22:52:56.450Z,9.32
2019-03-23T22:55:26.037Z,9.27
2019-03-23T22:57:55.782Z,9.24
2019-03-23T23:00:33.184Z,9.22
2019-03-23T23:03:03.241Z,9.18
2019-03-23T23:05:32.826Z,9.12
2019-03-23T23:08:02.445Z,9.08
2019-03-23T23:10:32.025Z,9.04
2019-03-23T23:13:01.635Z,9.01
2019-03-23T23:15:31.229Z,8.96
2019-03-23T23:18:00.777Z,8.91
2019-03-23T23:20:30.361Z,8.88
2019-03-23T23:22:59.978Z,8.85
2019-03-23T23:25:29.575Z,8.84
2019-03-23T23:27:59.176Z,8.80
2019-03-23T23:30:28.692Z,8.79
2019-03-23T23:32:58.234Z,8.77
2019-03-23T23:35:28.127Z,8.75
2019-03-23T23:37:57.662Z,8.73
2019-03-23T23:40:27.262Z,8.69
2019-03-23T23:42:56.883Z,8.67
2019-03-23T23:45:26.479Z,8.63
2019-03-23T23:47:56.094Z,8.59
2019-03-23T23:50:25.619Z,8.56
2019-03-23T23:52:55.234Z,8.52
2019-03-23T23:55:24.829Z,8.47
2019-03-23T23:57:54.459Z,8.42
